createdAt,value
2022-12-24T00:04:04.758Z,18.35
2022-12-24T00:06:31.603Z,18.27
2022-12-24T00:09:05.672Z,17.17
2022-12-24T00:11:32.580Z,19.08
2022-12-24T00:13:59.613Z,18.33
2022-12-24T00:16:32.119Z,18.55
2022-12-24T00:18:59.573Z,20.05
2022-12-24T00:21:27.546Z,19.70
2022-12-24T00:23:55.966Z,19.65
2022-12-24T00:26:22.911Z,20.42
2022-12-24T00:28:50.135Z,19.45
2022-12-24T00:31:20.251Z,20.77
2022-12-24T00:33:48.996Z,20.90
2022-12-24T00:36:19.213Z,19.95
2022-12-24T00:38:46.485Z,20.83
2022-12-24T00:41:14.743Z,22.63
2022-12-24T00:43:41.637Z,20.23
2022-12-24T00:46:08.588Z,21.75
2022-12-24T00:48:35.444Z,20.77
2022-12-24T00:51:04.280Z,21.40
2022-12-24T00:53:36.102Z,20.55
2022-12-24T00:56:03.091Z,20.63
2022-12-24T00:58:29.867Z,20.20
2022-12-24T01:01:00.278Z,21.77
2022-12-24T01:03:39.190Z,21.23
2022-12-24T01:06:09.527Z,21.48
2022-12-24T01:08:36.980Z,21.20
2022-12-24T01:11:05.975Z,21.67
2022-12-24T01:13:33.008Z,24.95
2022-12-24T01:16:00.471Z,23.38
2022-12-24T01:18:28.260Z,21.90
2022-12-24T01:20:57.373Z,23.27
2022-12-24T01:23:26.559Z,22.13
2022-12-24T01:25:53.661Z,23.50
2022-12-24T01:28:21.397Z,25.92
2022-12-24T01:30:48.372Z,22.25
2022-12-24T01:33:15.520Z,22.02
2022-12-24T01:35:43.095Z,21.38
2022-12-24T01:38:11.051Z,21.75
2022-12-24T01:40:41.059Z,24.48
2022-12-24T01:43:17.008Z,23.45
2022-12-24T01:45:50.130Z,21.95
2022-12-24T01:48:22.897Z,26.00
2022-12-24T01:50:54.209Z,22.77
2022-12-24T01:53:21.123Z,24.20
2022-12-24T01:55:55.053Z,24.92
2022-12-24T01:58:24.593Z,25.33
2022-12-24T02:00:51.426Z,24.65
2022-12-24T02:03:21.403Z,24.40
2022-12-24T02:05:50.886Z,25.00
2022-12-24T02:08:18.549Z,24.15
2022-12-24T02:10:45.672Z,23.90
2022-12-24T02:13:19.437Z,24.70
2022-12-24T02:16:02.577Z,24.77
2022-12-24T02:18:39.468Z,25.02
2022-12-24T02:21:45.032Z,23.23
2022-12-24T02:24:26.915Z,22.38
2022-12-24T02:27:08.004Z,22.98
2022-12-24T02:29:59.883Z,20.42
2022-12-24T02:32:33.670Z,20.77
2022-12-24T02:35:06.454Z,20.25
2022-12-24T02:37:37.145Z,21.38
2022-12-24T02:40:16.375Z,20.42
2022-12-24T02:42:53.984Z,21.35
2022-12-24T02:45:26.253Z,21.48
2022-12-24T02:47:55.408Z,19.67
2022-12-24T02:50:22.606Z,19.30
2022-12-24T02:52:50.446Z,19.10
2022-12-24T02:55:25.328Z,17.92
2022-12-24T02:58:07.502Z,18.05
2022-12-24T03:00:45.799Z,17.20
2022-12-24T03:03:29.974Z,16.85
2022-12-24T03:06:06.536Z,17.98
2022-12-24T03:08:42.563Z,15.55
2022-12-24T03:11:16.206Z,14.18
2022-12-24T03:13:47.546Z,14.13
2022-12-24T03:19:00.663Z,10.75
2022-12-24T03:21:33.879Z,9.55
2022-12-24T03:24:10.297Z,7.10
2022-12-24T03:26:45.086Z,6.80
2022-12-24T03:29:22.091Z,7.68
2022-12-24T03:31:59.422Z,6.10
2022-12-24T03:34:26.529Z,6.32
2022-12-24T03:37:01.953Z,6.75
2022-12-24T03:39:41.302Z,5.93
2022-12-24T03:42:11.415Z,6.10
2022-12-24T03:44:38.271Z,5.40
2022-12-24T03:47:06.578Z,5.75
2022-12-24T03:49:35.949Z,6.70
2022-12-24T03:52:08.436Z,6.65
2022-12-24T03:54:35.247Z,6.20
2022-12-24T03:57:05.093Z,6.03
2022-12-24T03:59:35.066Z,6.75
2022-12-24T04:02:06.650Z,6.72
2022-12-24T04:04:36.240Z,5.70
2022-12-24T04:07:03.453Z,6.97
2022-12-24T04:09:33.509Z,6.80
2022-12-24T04:12:02.782Z,6.78
2022-12-24T04:14:53.685Z,7.20
2022-12-24T04:17:23.342Z,6.10
2022-12-24T04:19:57.879Z,6.50
2022-12-24T04:22:27.642Z,6.82
2022-12-24T04:25:06.314Z,6.35
2022-12-24T04:27:33.111Z,6.35
2022-12-24T04:30:08.772Z,5.40
2022-12-24T04:32:49.133Z,7.45
2022-12-24T04:35:34.328Z,6.47
2022-12-24T04:38:19.510Z,7.20
2022-12-24T04:40:49.303Z,7.35
2022-12-24T04:43:17.177Z,5.72
2022-12-24T04:46:11.527Z,8.00
2022-12-24T04:48:56.286Z,6.80
2022-12-24T04:51:32.401Z,7.03
2022-12-24T04:53:59.180Z,7.57
2022-12-24T04:56:34.532Z,7.97
2022-12-24T04:59:02.031Z,8.45
2022-12-24T05:01:30.603Z,7.07
2022-12-24T05:04:02.977Z,7.40
2022-12-24T05:06:31.931Z,7.28
2022-12-24T05:09:03.140Z,7.88
2022-12-24T05:11:32.289Z,6.05
2022-12-24T05:13:59.326Z,7.57
2022-12-24T05:16:26.338Z,6.93
2022-12-24T05:18:53.994Z,5.95
2022-12-24T05:21:26.910Z,7.25
2022-12-24T05:23:56.783Z,8.43
2022-12-24T05:26:30.457Z,6.95
2022-12-24T05:29:00.280Z,7.68
2022-12-24T05:31:32.553Z,6.68
2022-12-24T05:34:06.875Z,7.25
2022-12-24T05:36:41.240Z,7.50
2022-12-24T05:39:15.417Z,8.10
2022-12-24T05:41:48.225Z,8.10
2022-12-24T05:44:27.846Z,7.22
2022-12-24T05:46:57.956Z,7.85
2022-12-24T05:49:24.785Z,7.50
2022-12-24T05:51:56.846Z,7.97
2022-12-24T05:54:25.831Z,6.57
2022-12-24T05:56:56.541Z,8.93
2022-12-24T05:59:24.470Z,8.40
2022-12-24T06:01:51.524Z,7.90
2022-12-24T06:04:28.215Z,6.72
2022-12-24T06:06:58.510Z,7.40
2022-12-24T06:09:25.404Z,7.63
2022-12-24T06:11:55.087Z,8.73
2022-12-24T06:14:24.741Z,6.38
2022-12-24T06:17:01.964Z,7.40
2022-12-24T06:19:29.869Z,7.22
2022-12-24T06:21:58.167Z,7.57
2022-12-24T06:24:40.378Z,6.82
2022-12-24T06:27:12.952Z,8.20
2022-12-24T06:29:45.597Z,7.32
2022-12-24T06:32:17.244Z,7.00
2022-12-24T06:35:11.043Z,7.45
2022-12-24T06:37:44.844Z,6.57
2022-12-24T06:40:16.171Z,7.65
2022-12-24T06:43:01.900Z,7.00
2022-12-24T06:45:32.065Z,6.80
2022-12-24T06:48:19.422Z,8.27
2022-12-24T06:50:55.517Z,7.78
2022-12-24T06:53:24.268Z,7.45
2022-12-24T06:56:06.392Z,6.30
2022-12-24T06:58:37.677Z,7.53
2022-12-24T07:01:13.508Z,8.23
2022-12-24T07:03:45.871Z,7.13
2022-12-24T07:06:25.377Z,6.85
2022-12-24T07:08:57.703Z,7.28
2022-12-24T07:11:27.165Z,6.32
2022-12-24T07:13:54.003Z,7.95
2022-12-24T07:16:20.982Z,7.03
2022-12-24T07:18:48.213Z,8.40
2022-12-24T07:21:16.034Z,6.60
2022-12-24T07:23:45.795Z,7.63
2022-12-24T07:26:24.785Z,6.72
2022-12-24T07:28:53.762Z,7.85
2022-12-24T07:31:27.283Z,9.38
2022-12-24T07:33:58.102Z,6.53
2022-12-24T07:36:25.192Z,7.47
2022-12-24T07:38:51.994Z,7.53
2022-12-24T07:41:20.922Z,7.40
2022-12-24T07:43:50.879Z,7.65
2022-12-24T07:46:17.726Z,7.25
2022-12-24T07:48:44.520Z,7.70
2022-12-24T07:51:18.609Z,8.27
2022-12-24T07:53:45.490Z,7.70
2022-12-24T07:58:54.637Z,6.78
2022-12-24T08:01:23.893Z,8.88
2022-12-24T08:03:53.931Z,8.15
2022-12-24T08:06:23.652Z,7.22
2022-12-24T08:08:50.466Z,6.60
2022-12-24T08:11:17.400Z,7.15
2022-12-24T08:13:44.926Z,8.00
2022-12-24T08:16:13.196Z,7.05
2022-12-24T08:18:40.044Z,7.30
2022-12-24T08:21:07.387Z,7.25
2022-12-24T08:23:34.375Z,7.55
2022-12-24T08:26:01.703Z,7.65
2022-12-24T08:28:28.546Z,8.98
2022-12-24T08:30:58.724Z,8.25
2022-12-24T08:33:26.952Z,8.68
2022-12-24T08:35:55.003Z,8.75
2022-12-24T08:38:22.372Z,9.05
2022-12-24T08:40:49.392Z,9.23
2022-12-24T08:43:16.374Z,8.27
2022-12-24T08:45:43.640Z,7.40
2022-12-24T08:48:10.813Z,6.95
2022-12-24T08:50:40.965Z,7.93
2022-12-24T08:53:08.133Z,8.23
2022-12-24T08:55:35.164Z,7.55
2022-12-24T08:58:01.953Z,8.05
2022-12-24T09:00:28.809Z,7.40
2022-12-24T09:02:58.607Z,7.10
2022-12-24T09:05:25.683Z,6.57
2022-12-24T09:08:11.500Z,6.93
2022-12-24T09:10:38.322Z,7.57
2022-12-24T09:13:05.059Z,7.22
2022-12-24T09:15:40.886Z,8.75
2022-12-24T09:18:09.473Z,7.90
2022-12-24T09:20:36.279Z,6.03
2022-12-24T09:23:03.170Z,7.43
2022-12-24T09:25:31.436Z,9.35
2022-12-24T09:27:58.656Z,7.75
2022-12-24T09:30:25.449Z,7.32
2022-12-24T09:32:52.291Z,7.97
2022-12-24T09:35:19.048Z,8.40
2022-12-24T09:37:45.761Z,7.88
2022-12-24T09:40:26.297Z,7.65
2022-12-24T09:43:00.161Z,7.28
2022-12-24T09:45:31.527Z,8.05
2022-12-24T09:50:39.993Z,8.98
2022-12-24T09:53:16.399Z,7.38
2022-12-24T09:55:58.737Z,7.07
2022-12-24T09:58:31.470Z,7.70
2022-12-24T10:00:58.597Z,7.82
2022-12-24T10:03:25.609Z,7.97
2022-12-24T10:06:13.728Z,7.43
2022-12-24T10:08:56.996Z,7.40
2022-12-24T10:11:31.743Z,7.47
2022-12-24T10:14:12.405Z,8.25
2022-12-24T10:16:50.759Z,7.00
2022-12-24T10:19:28.907Z,6.55
2022-12-24T10:22:08.018Z,6.80
2022-12-24T10:24:50.077Z,7.10
2022-12-24T10:27:22.260Z,6.50
2022-12-24T10:29:57.281Z,6.90
2022-12-24T10:32:28.730Z,6.15
2022-12-24T10:37:30.335Z,6.78
2022-12-24T10:42:36.038Z,6.32
2022-12-24T10:45:14.091Z,6.05
2022-12-24T10:47:43.223Z,5.43
2022-12-24T10:50:16.996Z,6.72
2022-12-24T10:52:47.341Z,6.65
2022-12-24T10:55:23.133Z,6.38
2022-12-24T10:58:00.631Z,6.18
2022-12-24T11:00:35.477Z,6.20
2022-12-24T11:03:22.925Z,6.93
2022-12-24T11:06:01.087Z,5.65
2022-12-24T11:08:28.059Z,6.03
2022-12-24T11:10:59.895Z,5.03
2022-12-24T11:13:39.874Z,6.63
2022-12-24T11:16:17.875Z,7.82
2022-12-24T11:18:51.157Z,6.88
2022-12-24T11:21:24.585Z,6.50
2022-12-24T11:23:54.618Z,8.98
2022-12-24T11:26:24.143Z,7.43
2022-12-24T11:29:14.857Z,6.85
2022-12-24T11:31:43.672Z,10.50
2022-12-24T11:34:28.358Z,5.63
2022-12-24T11:37:12.272Z,7.10
2022-12-24T11:39:45.020Z,7.03
2022-12-24T11:42:26.567Z,6.13
2022-12-24T11:47:32.868Z,6.55
2022-12-24T11:50:24.204Z,5.25
2022-12-24T11:52:57.354Z,5.32
2022-12-24T11:55:35.234Z,5.05
2022-12-24T12:04:50.442Z,5.55
2022-12-24T12:07:45.619Z,5.38
2022-12-24T12:13:22.225Z,6.60
2022-12-24T12:16:35.437Z,4.80
2022-12-24T12:19:39.484Z,8.40
2022-12-24T12:32:07.379Z,4.78
2022-12-24T12:38:37.167Z,4.07
2022-12-24T12:43:39.755Z,4.90
2022-12-24T12:45:41.759Z,5.22
2022-12-24T12:55:11.571Z,5.28
2022-12-24T12:58:27.084Z,5.20
2022-12-24T13:16:43.002Z,5.35
2022-12-24T13:20:12.605Z,4.97
2022-12-24T13:29:44.459Z,4.90
2022-12-24T13:36:02.788Z,4.88
2022-12-24T13:38:42.475Z,4.15
2022-12-24T13:41:40.502Z,4.65
2022-12-24T13:44:21.775Z,4.10
2022-12-24T13:47:05.082Z,4.07
2022-12-24T13:49:36.700Z,4.38
2022-12-24T13:52:13.827Z,5.20
2022-12-24T13:54:43.171Z,3.08
2022-12-24T13:57:27.145Z,3.53
2022-12-24T13:59:58.674Z,4.80
2022-12-24T14:02:34.008Z,5.03
2022-12-24T14:05:10.718Z,4.47
2022-12-24T14:07:47.781Z,3.97
2022-12-24T14:10:23.654Z,3.80
2022-12-24T14:12:52.189Z,4.35
2022-12-24T14:16:04.748Z,4.75
2022-12-24T14:18:38.900Z,3.78
2022-12-24T14:21:07.552Z,3.67
2022-12-24T14:23:44.737Z,3.78
2022-12-24T14:26:15.329Z,3.92
2022-12-24T14:28:45.785Z,3.70
2022-12-24T14:31:16.572Z,4.05
2022-12-24T14:33:45.730Z,4.60
2022-12-24T14:36:15.893Z,3.83
2022-12-24T14:38:45.475Z,4.50
2022-12-24T14:41:27.131Z,3.55
2022-12-24T14:44:04.252Z,5.03
2022-12-24T14:46:38.223Z,4.03
2022-12-24T14:49:18.124Z,4.25
2022-12-24T14:51:52.483Z,4.50
2022-12-24T14:54:38.442Z,4.75
2022-12-24T14:58:24.662Z,4.13
2022-12-24T15:00:56.872Z,3.83
2022-12-24T15:03:37.341Z,3.90
2022-12-24T15:06:52.842Z,4.70
2022-12-24T15:09:23.447Z,5.30
2022-12-24T15:12:19.080Z,4.57
2022-12-24T15:14:49.595Z,6.43
2022-12-24T15:17:47.418Z,4.03
2022-12-24T15:21:13.344Z,7.43
2022-12-24T15:26:48.721Z,6.03
2022-12-24T15:29:31.454Z,6.32
2022-12-24T15:32:18.561Z,5.30
2022-12-24T15:35:01.339Z,5.70
2022-12-24T15:38:33.621Z,5.65
2022-12-24T15:40:48.280Z,5.20
2022-12-24T15:43:30.349Z,5.53
2022-12-24T15:46:30.735Z,5.30
2022-12-24T15:52:42.008Z,4.43
2022-12-24T15:55:39.782Z,4.05
2022-12-24T15:58:30.161Z,4.10
2022-12-24T16:01:30.608Z,4.70
2022-12-24T16:06:57.849Z,5.38
2022-12-24T16:09:41.845Z,5.22
2022-12-24T16:12:16.627Z,4.78
2022-12-24T16:14:57.693Z,6.75
2022-12-24T16:17:38.143Z,5.00
2022-12-24T16:20:28.879Z,5.82
2022-12-24T16:23:01.313Z,5.50
2022-12-24T16:25:29.899Z,5.45
2022-12-24T16:28:00.365Z,4.35
2022-12-24T16:30:32.191Z,5.32
2022-12-24T16:35:31.926Z,5.38
2022-12-24T16:38:20.050Z,5.57
2022-12-24T16:41:01.565Z,5.60
2022-12-24T16:46:46.887Z,5.50
2022-12-24T16:49:33.396Z,5.55
2022-12-24T17:16:28.130Z,6.43
2022-12-24T17:19:00.806Z,6.38
2022-12-24T17:21:30.659Z,7.00
2022-12-24T17:24:04.425Z,6.60
2022-12-24T17:26:35.680Z,7.25
2022-12-24T17:29:07.473Z,7.03
2022-12-24T17:31:34.355Z,8.05
2022-12-24T17:34:04.711Z,6.35
2022-12-24T17:36:31.486Z,6.93
2022-12-24T17:39:01.988Z,7.38
2022-12-24T17:41:29.086Z,7.30
2022-12-24T17:43:55.850Z,7.30
2022-12-24T17:46:32.659Z,6.10
2022-12-24T17:49:02.343Z,7.55
2022-12-24T17:51:31.059Z,7.93
2022-12-24T17:53:58.328Z,8.75
2022-12-24T17:56:25.482Z,8.13
2022-12-24T17:58:56.393Z,7.97
2022-12-24T18:01:29.783Z,8.18
2022-12-24T18:12:42.359Z,7.85
2022-12-24T18:15:30.191Z,7.72
2022-12-24T18:18:12.911Z,7.57
2022-12-24T18:20:50.927Z,7.13
2022-12-24T18:23:35.846Z,8.52
2022-12-24T18:26:16.622Z,7.30
2022-12-24T18:28:44.517Z,7.63
2022-12-24T18:31:16.000Z,8.48
2022-12-24T18:33:55.655Z,7.72
2022-12-24T18:36:27.080Z,8.73
2022-12-24T18:41:37.421Z,8.70
2022-12-24T18:46:36.116Z,9.50
2022-12-24T18:49:15.781Z,9.02
2022-12-24T18:51:44.420Z,8.32
2022-12-24T18:54:17.900Z,8.35
2022-12-24T18:56:49.765Z,9.25
2022-12-24T18:59:16.689Z,10.48
2022-12-24T19:01:48.970Z,10.25
2022-12-24T19:04:17.729Z,9.30
2022-12-24T19:06:50.873Z,9.63
2022-12-24T19:09:24.198Z,9.13
2022-12-24T19:11:51.228Z,8.55
2022-12-24T19:14:18.106Z,9.40
2022-12-24T19:16:46.892Z,8.75
2022-12-24T19:19:13.798Z,8.48
2022-12-24T19:21:48.095Z,10.48
2022-12-24T19:24:16.271Z,8.93
2022-12-24T19:26:44.664Z,9.60
2022-12-24T19:29:17.457Z,10.55
2022-12-24T19:31:49.586Z,10.57
2022-12-24T19:34:16.560Z,9.05
2022-12-24T19:36:46.939Z,11.00
2022-12-24T19:39:13.957Z,10.20
2022-12-24T19:41:47.283Z,10.13
2022-12-24T19:44:23.915Z,11.48
2022-12-24T19:46:53.257Z,9.65
2022-12-24T19:49:24.628Z,9.38
2022-12-24T19:54:23.684Z,10.95
2022-12-24T19:56:50.592Z,11.50
2022-12-24T19:59:19.829Z,11.68
2022-12-24T20:04:32.298Z,12.20
2022-12-24T20:07:03.425Z,13.60
2022-12-24T20:09:33.506Z,12.02
2022-12-24T20:12:05.687Z,12.63
2022-12-24T20:14:34.098Z,12.40
2022-12-24T20:17:01.093Z,13.30
2022-12-24T20:19:31.566Z,12.88
2022-12-24T20:21:58.461Z,12.23
2022-12-24T20:24:30.722Z,12.75
2022-12-24T20:27:06.727Z,12.43
2022-12-24T20:29:40.384Z,15.80
2022-12-24T20:32:24.291Z,14.45
2022-12-24T20:34:56.038Z,12.60
2022-12-24T20:37:27.638Z,13.52
2022-12-24T20:40:02.264Z,24.25
2022-12-24T20:42:37.031Z,14.73
2022-12-24T20:45:26.997Z,13.57
2022-12-24T20:48:10.672Z,14.68
2022-12-24T20:50:45.363Z,13.40
2022-12-24T20:53:19.785Z,14.68
2022-12-24T20:55:53.478Z,15.93
2022-12-24T20:58:23.132Z,16.33
2022-12-24T21:01:04.333Z,16.58
2022-12-24T21:03:46.987Z,15.13
2022-12-24T21:06:27.170Z,18.13
2022-12-24T21:09:04.384Z,19.38
2022-12-24T21:11:40.209Z,19.30
2022-12-24T21:14:07.196Z,21.42
2022-12-24T21:16:52.061Z,19.20
2022-12-24T21:19:25.459Z,20.63
2022-12-24T21:21:59.228Z,23.00
2022-12-24T21:24:31.434Z,23.13
2022-12-24T21:27:00.486Z,23.55
2022-12-24T21:29:46.956Z,23.15
2022-12-24T21:32:23.241Z,22.40
2022-12-24T21:35:04.792Z,27.27
2022-12-24T21:37:34.824Z,26.15
2022-12-24T21:40:10.183Z,28.50
2022-12-24T21:42:40.859Z,32.60
2022-12-24T21:45:20.263Z,33.42
2022-12-24T21:47:58.223Z,31.52
2022-12-24T21:50:33.845Z,33.13
2022-12-24T21:53:07.455Z,34.10
2022-12-24T21:55:42.873Z,37.17
2022-12-24T21:58:16.421Z,32.67
2022-12-24T22:00:49.463Z,34.85
2022-12-24T22:03:21.537Z,34.25
2022-12-24T22:06:09.733Z,32.83
2022-12-24T22:08:42.305Z,34.85
2022-12-24T22:11:25.403Z,35.20
2022-12-24T22:13:53.820Z,34.92
2022-12-24T22:16:27.416Z,34.67
2022-12-24T22:19:00.801Z,34.95
2022-12-24T22:21:30.683Z,36.13
2022-12-24T22:23:59.221Z,37.65
2022-12-24T22:26:25.951Z,38.78
2022-12-24T22:28:55.758Z,40.08
2022-12-24T22:31:31.638Z,38.58
2022-12-24T22:34:08.650Z,39.10
2022-12-24T22:36:42.996Z,36.78
2022-12-24T22:39:10.130Z,37.40
2022-12-24T22:41:44.004Z,38.08
2022-12-24T22:44:10.998Z,35.90
2022-12-24T22:46:40.635Z,36.47
2022-12-24T22:49:24.978Z,35.88
2022-12-24T22:51:51.836Z,37.55
2022-12-24T22:54:20.465Z,36.80
2022-12-24T22:56:47.447Z,35.58
2022-12-24T22:59:23.407Z,36.60
2022-12-24T23:01:52.803Z,36.67
2022-12-24T23:04:35.759Z,35.75
2022-12-24T23:07:04.432Z,34.70
2022-12-24T23:09:31.354Z,37.17
2022-12-24T23:11:58.179Z,36.58
2022-12-24T23:14:26.103Z,35.33
2022-12-24T23:16:56.523Z,35.75
2022-12-24T23:19:26.147Z,33.53
2022-12-24T23:21:55.646Z,33.53
2022-12-24T23:24:26.346Z,31.85
2022-12-24T23:26:59.021Z,33.58
2022-12-24T23:29:28.532Z,32.42
2022-12-24T23:31:55.460Z,34.92
2022-12-24T23:34:24.835Z,34.53
2022-12-24T23:36:56.204Z,31.75
2022-12-24T23:42:01.096Z,31.05
2022-12-24T23:44:32.216Z,32.90
2022-12-24T23:47:00.181Z,31.08
2022-12-24T23:49:27.159Z,30.60
2022-12-24T23:52:12.641Z,30.90
2022-12-24T23:54:41.739Z,26.55
2022-12-24T23:57:10.398Z,32.08
2022-12-24T23:59:43.411Z,30.73
